sensor_id;sensor_type;location;lat;lon;timestamp;pressure;altitude;pressure_sealevel;temperature;humidity
74169;BME280;62523;53.336;83.690;2023-04-24T00:03:01;99081.81;;;5.58;37.90
74169;BME280;62523;53.336;83.690;2023-04-24T00:08:04;99084.81;;;5.91;37.21
74169;BME280;62523;53.336;83.690;2023-04-24T00:13:06;99085.34;;;6.01;37.10
74169;BME280;62523;53.336;83.690;2023-04-24T00:18:09;99080.97;;;6.43;36.20
74169;BME280;62523;53.336;83.690;2023-04-24T00:23:11;99070.16;;;6.90;35.65
74169;BME280;62523;53.336;83.690;2023-04-24T00:28:13;99057.34;;;6.24;36.96
74169;BME280;62523;53.336;83.690;2023-04-24T00:33:16;99056.09;;;7.11;35.70
74169;BME280;62523;53.336;83.690;2023-04-24T00:38:18;99048.69;;;7.57;34.96
74169;BME280;62523;53.336;83.690;2023-04-24T00:43:20;99049.94;;;6.93;36.13
74169;BME280;62523;53.336;83.690;2023-04-24T00:48:23;99045.91;;;6.86;36.26
74169;BME280;62523;53.336;83.690;2023-04-24T00:53:26;99042.06;;;6.93;36.70
74169;BME280;62523;53.336;83.690;2023-04-24T00:58:29;99029.81;;;7.13;35.95
74169;BME280;62523;53.336;83.690;2023-04-24T01:03:33;99025.88;;;7.04;36.70
74169;BME280;62523;53.336;83.690;2023-04-24T01:08:38;99020.06;;;6.97;36.81
74169;BME280;62523;53.336;83.690;2023-04-24T01:13:44;99022.03;;;7.11;36.79
74169;BME280;62523;53.336;83.690;2023-04-24T01:18:48;99013.75;;;7.21;36.44
74169;BME280;62523;53.336;83.690;2023-04-24T01:23:51;99000.75;;;7.36;36.28
74169;BME280;62523;53.336;83.690;2023-04-24T01:28:53;98995.66;;;7.33;36.43
74169;BME280;62523;53.336;83.690;2023-04-24T01:33:56;98986.81;;;7.36;36.33
74169;BME280;62523;53.336;83.690;2023-04-24T01:38:59;98971.00;;;7.37;36.17
74169;BME280;62523;53.336;83.690;2023-04-24T01:44:02;98967.56;;;7.72;36.09
74169;BME280;62523;53.336;83.690;2023-04-24T01:49:04;98961.69;;;7.84;35.27
74169;BME280;62523;53.336;83.690;2023-04-24T01:54:07;98954.97;;;8.13;34.94
74169;BME280;62523;53.336;83.690;2023-04-24T01:59:11;98951.66;;;8.43;34.90
74169;BME280;62523;53.336;83.690;2023-04-24T02:04:14;98924.69;;;8.57;33.86
74169;BME280;62523;53.336;83.690;2023-04-24T02:09:16;98912.41;;;8.89;33.91
74169;BME280;62523;53.336;83.690;2023-04-24T02:14:19;98912.06;;;8.95;33.52
74169;BME280;62523;53.336;83.690;2023-04-24T02:19:21;98889.63;;;8.90;34.10
74169;BME280;62523;53.336;83.690;2023-04-24T02:24:26;98868.63;;;9.20;33.88
74169;BME280;62523;53.336;83.690;2023-04-24T02:29:28;98860.88;;;9.92;33.56
74169;BME280;62523;53.336;83.690;2023-04-24T02:34:31;98846.50;;;10.12;32.68
74169;BME280;62523;53.336;83.690;2023-04-24T02:39:35;98835.91;;;10.69;32.03
74169;BME280;62523;53.336;83.690;2023-04-24T02:44:37;98823.66;;;10.95;31.65
74169;BME280;62523;53.336;83.690;2023-04-24T02:49:39;98813.94;;;11.48;30.76
74169;BME280;62523;53.336;83.690;2023-04-24T02:54:42;98803.69;;;11.44;30.32
74169;BME280;62523;53.336;83.690;2023-04-24T02:59:44;98792.94;;;11.21;30.73
74169;BME280;62523;53.336;83.690;2023-04-24T03:04:46;98770.69;;;11.77;30.69
74169;BME280;62523;53.336;83.690;2023-04-24T03:09:52;98760.88;;;11.92;30.49
74169;BME280;62523;53.336;83.690;2023-04-24T03:14:54;98749.59;;;11.90;29.48
74169;BME280;62523;53.336;83.690;2023-04-24T03:19:58;98737.16;;;12.16;28.84
74169;BME280;62523;53.336;83.690;2023-04-24T03:25:01;98721.41;;;12.62;29.19
74169;BME280;62523;53.336;83.690;2023-04-24T03:30:07;98708.75;;;12.79;28.49
74169;BME280;62523;53.336;83.690;2023-04-24T03:35:23;98697.75;;;13.07;28.65
74169;BME280;62523;53.336;83.690;2023-04-24T03:40:27;98689.34;;;13.02;28.61
74169;BME280;62523;53.336;83.690;2023-04-24T03:45:32;98683.41;;;13.57;28.29
74169;BME280;62523;53.336;83.690;2023-04-24T03:50:35;98681.00;;;13.76;27.78
74169;BME280;62523;53.336;83.690;2023-04-24T03:55:37;98667.38;;;13.81;27.93
74169;BME280;62523;53.336;83.690;2023-04-24T04:00:40;98652.41;;;14.02;28.02
74169;BME280;62523;53.336;83.690;2023-04-24T04:06:02;98649.41;;;14.07;27.96
74169;BME280;62523;53.336;83.690;2023-04-24T04:11:05;98644.84;;;13.98;27.92
74169;BME280;62523;53.336;83.690;2023-04-24T04:16:08;98618.97;;;14.01;28.02
74169;BME280;62523;53.336;83.690;2023-04-24T04:21:11;98577.53;;;14.11;27.79
74169;BME280;62523;53.336;83.690;2023-04-24T04:26:14;98610.53;;;14.07;28.16
74169;BME280;62523;53.336;83.690;2023-04-24T04:31:35;98604.47;;;14.17;28.47
74169;BME280;62523;53.336;83.690;2023-04-24T04:36:43;98599.97;;;14.28;28.21
74169;BME280;62523;53.336;83.690;2023-04-24T04:42:06;98574.00;;;14.43;28.48
74169;BME280;62523;53.336;83.690;2023-04-24T04:47:15;98573.63;;;14.48;28.65
74169;BME280;62523;53.336;83.690;2023-04-24T04:52:19;98547.06;;;15.21;28.64
74169;BME280;62523;53.336;83.690;2023-04-24T04:57:25;98534.06;;;15.08;27.68
74169;BME280;62523;53.336;83.690;2023-04-24T05:02:28;98538.06;;;15.02;28.58
74169;BME280;62523;53.336;83.690;2023-04-24T05:07:30;98527.41;;;14.92;28.21
74169;BME280;62523;53.336;83.690;2023-04-24T05:12:33;98506.03;;;15.25;28.36
74169;BME280;62523;53.336;83.690;2023-04-24T05:17:37;98507.28;;;15.90;27.84
74169;BME280;62523;53.336;83.690;2023-04-24T05:22:42;98500.56;;;15.86;26.84
74169;BME280;62523;53.336;83.690;2023-04-24T05:27:44;98480.97;;;16.16;27.17
74169;BME280;62523;53.336;83.690;2023-04-24T05:32:50;98487.97;;;16.08;26.24
74169;BME280;62523;53.336;83.690;2023-04-24T05:37:53;98459.16;;;15.54;27.28
74169;BME280;62523;53.336;83.690;2023-04-24T05:42:55;98441.69;;;15.52;28.05
74169;BME280;62523;53.336;83.690;2023-04-24T05:47:59;98459.41;;;15.42;28.87
74169;BME280;62523;53.336;83.690;2023-04-24T05:53:02;98463.44;;;15.26;29.35
74169;BME280;62523;53.336;83.690;2023-04-24T05:58:08;98461.81;;;15.64;29.23
74169;BME280;62523;53.336;83.690;2023-04-24T06:03:14;98463.44;;;16.33;28.81
74169;BME280;62523;53.336;83.690;2023-04-24T06:08:16;98431.63;;;16.51;29.60
74169;BME280;62523;53.336;83.690;2023-04-24T06:13:21;98427.31;;;16.41;29.04
74169;BME280;62523;53.336;83.690;2023-04-24T06:18:55;98417.69;;;15.73;27.81
74169;BME280;62523;53.336;83.690;2023-04-24T06:23:57;98432.31;;;15.48;29.69
74169;BME280;62523;53.336;83.690;2023-04-24T06:29:01;98425.19;;;15.87;29.17
74169;BME280;62523;53.336;83.690;2023-04-24T06:34:03;98399.16;;;16.10;28.96
74169;BME280;62523;53.336;83.690;2023-04-24T06:39:06;98418.72;;;16.29;27.68
74169;BME280;62523;53.336;83.690;2023-04-24T06:44:08;98386.22;;;15.88;28.29
74169;BME280;62523;53.336;83.690;2023-04-24T06:49:10;98365.38;;;15.93;28.86
74169;BME280;62523;53.336;83.690;2023-04-24T06:54:14;98360.50;;;16.26;28.29
74169;BME280;62523;53.336;83.690;2023-04-24T06:59:16;98365.06;;;16.15;29.04
74169;BME280;62523;53.336;83.690;2023-04-24T07:04:18;98354.88;;;16.01;28.92
74169;BME280;62523;53.336;83.690;2023-04-24T07:09:20;98348.06;;;15.89;29.51
74169;BME280;62523;53.336;83.690;2023-04-24T07:14:24;98347.16;;;16.17;30.07
74169;BME280;62523;53.336;83.690;2023-04-24T07:19:26;98314.16;;;16.66;29.34
74169;BME280;62523;53.336;83.690;2023-04-24T07:24:29;98306.75;;;16.04;30.23
74169;BME280;62523;53.336;83.690;2023-04-24T07:29:34;98314.31;;;16.36;30.54
74169;BME280;62523;53.336;83.690;2023-04-24T07:34:38;98303.66;;;16.64;30.96
74169;BME280;62523;53.336;83.690;2023-04-24T07:39:42;98294.03;;;16.63;30.96
74169;BME280;62523;53.336;83.690;2023-04-24T07:44:45;98306.47;;;16.90;31.84
74169;BME280;62523;53.336;83.690;2023-04-24T07:49:49;98303.59;;;17.02;31.74
74169;BME280;62523;53.336;83.690;2023-04-24T07:54:52;98287.47;;;17.03;30.46
74169;BME280;62523;53.336;83.690;2023-04-24T07:59:59;98294.59;;;17.03;31.02
74169;BME280;62523;53.336;83.690;2023-04-24T08:05:04;98279.56;;;17.11;30.71
74169;BME280;62523;53.336;83.690;2023-04-24T08:10:06;98254.28;;;17.33;31.18
74169;BME280;62523;53.336;83.690;2023-04-24T08:15:09;98256.69;;;17.71;30.99
74169;BME280;62523;53.336;83.690;2023-04-24T08:20:12;98263.75;;;17.54;31.59
74169;BME280;62523;53.336;83.690;2023-04-24T08:25:17;98265.47;;;17.63;32.01
74169;BME280;62523;53.336;83.690;2023-04-24T08:30:22;98230.97;;;17.53;30.92
74169;BME280;62523;53.336;83.690;2023-04-24T08:35:24;98263.09;;;18.12;30.57
74169;BME280;62523;53.336;83.690;2023-04-24T08:40:28;98250.22;;;17.99;30.48
74169;BME280;62523;53.336;83.690;2023-04-24T08:45:32;98242.78;;;18.11;30.49
74169;BME280;62523;53.336;83.690;2023-04-24T08:50:35;98212.97;;;17.81;29.75
74169;BME280;62523;53.336;83.690;2023-04-24T08:55:38;98244.25;;;18.06;30.31
74169;BME280;62523;53.336;83.690;2023-04-24T09:00:53;98227.47;;;18.13;29.99
74169;BME280;62523;53.336;83.690;2023-04-24T09:05:57;98241.19;;;17.92;30.53
74169;BME280;62523;53.336;83.690;2023-04-24T09:10:59;98221.75;;;18.08;30.09
74169;BME280;62523;53.336;83.690;2023-04-24T09:16:05;98197.94;;;18.07;30.16
74169;BME280;62523;53.336;83.690;2023-04-24T09:21:09;98216.47;;;18.16;30.94
74169;BME280;62523;53.336;83.690;2023-04-24T09:26:12;98220.66;;;18.27;31.26
74169;BME280;62523;53.336;83.690;2023-04-24T09:31:19;98227.53;;;18.38;30.44
74169;BME280;62523;53.336;83.690;2023-04-24T09:36:31;98212.66;;;18.27;30.35
74169;BME280;62523;53.336;83.690;2023-04-24T09:41:35;98227.34;;;17.89;31.35
74169;BME280;62523;53.336;83.690;2023-04-24T09:46:37;98214.22;;;17.69;31.37
74169;BME280;62523;53.336;83.690;2023-04-24T09:51:39;98247.56;;;17.47;33.80
74169;BME280;62523;53.336;83.690;2023-04-24T09:56:48;98265.13;;;16.05;41.38
74169;BME280;62523;53.336;83.690;2023-04-24T10:01:51;98235.66;;;15.51;47.42
74169;BME280;62523;53.336;83.690;2023-04-24T10:06:56;98236.94;;;15.94;44.41
74169;BME280;62523;53.336;83.690;2023-04-24T10:11:59;98262.69;;;15.74;46.32
74169;BME280;62523;53.336;83.690;2023-04-24T10:17:04;98256.41;;;16.12;47.28
74169;BME280;62523;53.336;83.690;2023-04-24T10:22:09;98246.84;;;15.45;50.50
74169;BME280;62523;53.336;83.690;2023-04-24T10:27:13;98242.53;;;15.24;52.16
74169;BME280;62523;53.336;83.690;2023-04-24T10:32:17;98220.34;;;15.15;52.92
74169;BME280;62523;53.336;83.690;2023-04-24T10:37:19;98231.69;;;15.08;53.89
74169;BME280;62523;53.336;83.690;2023-04-24T10:42:21;98230.56;;;14.81;54.15
74169;BME280;62523;53.336;83.690;2023-04-24T10:47:24;98246.91;;;14.86;54.21
74169;BME280;62523;53.336;83.690;2023-04-24T10:52:44;98241.47;;;14.98;53.33
74169;BME280;62523;53.336;83.690;2023-04-24T10:58:03;98249.78;;;14.54;57.12
74169;BME280;62523;53.336;83.690;2023-04-24T11:03:09;98257.78;;;14.13;58.20
74169;BME280;62523;53.336;83.690;2023-04-24T11:08:43;98259.91;;;14.29;55.86
74169;BME280;62523;53.336;83.690;2023-04-24T11:19:08;98288.69;;;14.44;53.40
74169;BME280;62523;53.336;83.690;2023-04-24T11:24:30;98292.94;;;14.25;53.72
74169;BME280;62523;53.336;83.690;2023-04-24T11:35:14;98279.69;;;14.16;54.87
74169;BME280;62523;53.336;83.690;2023-04-24T11:40:18;98277.28;;;14.03;56.26
74169;BME280;62523;53.336;83.690;2023-04-24T11:45:29;98272.94;;;14.02;56.77
74169;BME280;62523;53.336;83.690;2023-04-24T11:50:32;98263.38;;;14.20;56.44
74169;BME280;62523;53.336;83.690;2023-04-24T11:55:34;98255.13;;;14.83;53.93
74169;BME280;62523;53.336;83.690;2023-04-24T12:00:36;98261.69;;;14.69;54.74
74169;BME280;62523;53.336;83.690;2023-04-24T12:05:40;98252.91;;;14.59;55.47
74169;BME280;62523;53.336;83.690;2023-04-24T12:10:51;98249.41;;;14.59;55.72
74169;BME280;62523;53.336;83.690;2023-04-24T12:15:53;98254.06;;;14.36;57.00
74169;BME280;62523;53.336;83.690;2023-04-24T12:21:23;98248.31;;;14.21;58.20
74169;BME280;62523;53.336;83.690;2023-04-24T12:26:28;98258.34;;;14.17;58.90
74169;BME280;62523;53.336;83.690;2023-04-24T12:31:30;98252.31;;;14.05;59.66
74169;BME280;62523;53.336;83.690;2023-04-24T12:36:35;98256.63;;;13.97;60.67
74169;BME280;62523;53.336;83.690;2023-04-24T12:41:37;98255.63;;;13.98;60.19
74169;BME280;62523;53.336;83.690;2023-04-24T12:46:40;98246.97;;;13.86;60.63
74169;BME280;62523;53.336;83.690;2023-04-24T12:51:42;98253.22;;;13.85;60.75
74169;BME280;62523;53.336;83.690;2023-04-24T12:56:45;98251.16;;;13.58;61.34
74169;BME280;62523;53.336;83.690;2023-04-24T13:01:47;98257.66;;;13.75;60.93
74169;BME280;62523;53.336;83.690;2023-04-24T13:06:49;98287.31;;;13.78;57.86
74169;BME280;62523;53.336;83.690;2023-04-24T13:12:02;98300.41;;;13.49;58.21
74169;BME280;62523;53.336;83.690;2023-04-24T13:17:05;98308.69;;;13.23;59.44
74169;BME280;62523;53.336;83.690;2023-04-24T13:22:09;98316.13;;;12.97;61.21
74169;BME280;62523;53.336;83.690;2023-04-24T13:27:12;98318.13;;;12.73;63.33
74169;BME280;62523;53.336;83.690;2023-04-24T13:32:14;98324.66;;;12.46;64.79
74169;BME280;62523;53.336;83.690;2023-04-24T13:37:16;98317.00;;;12.32;66.38
74169;BME280;62523;53.336;83.690;2023-04-24T13:42:19;98328.78;;;12.16;68.17
74169;BME280;62523;53.336;83.690;2023-04-24T13:47:22;98342.91;;;12.04;68.97
74169;BME280;62523;53.336;83.690;2023-04-24T13:52:24;98352.66;;;11.92;69.95
74169;BME280;62523;53.336;83.690;2023-04-24T13:57:26;98346.75;;;11.88;70.47
74169;BME280;62523;53.336;83.690;2023-04-24T14:02:30;98355.09;;;11.71;71.50
74169;BME280;62523;53.336;83.690;2023-04-24T14:07:32;98367.81;;;11.77;71.80
74169;BME280;62523;53.336;83.690;2023-04-24T14:12:34;98368.44;;;11.81;72.15
74169;BME280;62523;53.336;83.690;2023-04-24T14:17:37;98386.28;;;11.77;72.61
74169;BME280;62523;53.336;83.690;2023-04-24T14:22:39;98384.34;;;11.68;73.60
74169;BME280;62523;53.336;83.690;2023-04-24T14:27:41;98405.78;;;11.63;74.86
74169;BME280;62523;53.336;83.690;2023-04-24T14:32:44;98407.09;;;11.58;76.12
74169;BME280;62523;53.336;83.690;2023-04-24T14:37:46;98402.25;;;11.40;77.92
74169;BME280;62523;53.336;83.690;2023-04-24T14:42:50;98408.63;;;11.49;78.32
74169;BME280;62523;53.336;83.690;2023-04-24T14:47:52;98421.50;;;11.30;79.43
74169;BME280;62523;53.336;83.690;2023-04-24T14:52:55;98425.47;;;11.35;79.96
74169;BME280;62523;53.336;83.690;2023-04-24T14:58:01;98426.91;;;11.39;80.11
74169;BME280;62523;53.336;83.690;2023-04-24T15:03:03;98431.06;;;11.31;80.63
74169;BME280;62523;53.336;83.690;2023-04-24T15:08:06;98437.91;;;11.33;81.53
74169;BME280;62523;53.336;83.690;2023-04-24T15:13:08;98435.47;;;11.19;82.60
74169;BME280;62523;53.336;83.690;2023-04-24T15:18:10;98432.44;;;11.36;82.17
74169;BME280;62523;53.336;83.690;2023-04-24T15:23:13;98440.06;;;11.28;81.88
74169;BME280;62523;53.336;83.690;2023-04-24T15:28:15;98434.94;;;11.14;83.68
74169;BME280;62523;53.336;83.690;2023-04-24T15:33:17;98451.53;;;11.03;85.25
74169;BME280;62523;53.336;83.690;2023-04-24T15:38:20;98436.44;;;10.81;87.41
74169;BME280;62523;53.336;83.690;2023-04-24T15:43:22;98453.47;;;10.88;88.09
74169;BME280;62523;53.336;83.690;2023-04-24T15:48:24;98439.00;;;10.57;89.57
74169;BME280;62523;53.336;83.690;2023-04-24T15:53:26;98430.56;;;10.64;88.41
74169;BME280;62523;53.336;83.690;2023-04-24T15:58:29;98437.94;;;10.59;88.46
74169;BME280;62523;53.336;83.690;2023-04-24T16:03:31;98434.91;;;10.40;89.00
74169;BME280;62523;53.336;83.690;2023-04-24T16:08:34;98432.81;;;10.32;88.66
74169;BME280;62523;53.336;83.690;2023-04-24T16:13:36;98429.72;;;10.25;89.72
74169;BME280;62523;53.336;83.690;2023-04-24T16:18:38;98437.22;;;10.19;90.11
74169;BME280;62523;53.336;83.690;2023-04-24T16:23:41;98427.84;;;10.15;90.89
74169;BME280;62523;53.336;83.690;2023-04-24T16:28:43;98435.94;;;9.99;92.76
74169;BME280;62523;53.336;83.690;2023-04-24T16:33:45;98445.94;;;9.94;95.00
74169;BME280;62523;53.336;83.690;2023-04-24T16:38:47;98454.84;;;9.78;97.62
74169;BME280;62523;53.336;83.690;2023-04-24T16:43:54;98475.44;;;9.72;98.18
74169;BME280;62523;53.336;83.690;2023-04-24T16:48:57;98479.75;;;9.60;100.00
74169;BME280;62523;53.336;83.690;2023-04-24T16:53:59;98485.50;;;9.52;100.00
74169;BME280;62523;53.336;83.690;2023-04-24T16:59:01;98487.19;;;9.53;100.00
74169;BME280;62523;53.336;83.690;2023-04-24T17:04:03;98497.50;;;9.56;100.00
74169;BME280;62523;53.336;83.690;2023-04-24T17:09:05;98500.44;;;9.52;100.00
74169;BME280;62523;53.336;83.690;2023-04-24T17:14:08;98489.34;;;9.34;100.00
74169;BME280;62523;53.336;83.690;2023-04-24T17:19:10;98496.88;;;9.26;100.00
74169;BME280;62523;53.336;83.690;2023-04-24T17:24:13;98498.53;;;9.27;100.00
74169;BME280;62523;53.336;83.690;2023-04-24T17:29:15;98508.72;;;9.18;100.00
74169;BME280;62523;53.336;83.690;2023-04-24T17:34:17;98509.84;;;9.14;100.00
74169;BME280;62523;53.336;83.690;2023-04-24T17:39:19;98518.28;;;9.19;100.00
74169;BME280;62523;53.336;83.690;2023-04-24T17:44:21;98532.75;;;9.12;100.00
74169;BME280;62523;53.336;83.690;2023-04-24T17:49:23;98540.34;;;9.02;100.00
74169;BME280;62523;53.336;83.690;2023-04-24T17:54:25;98546.34;;;9.05;100.00
74169;BME280;62523;53.336;83.690;2023-04-24T17:59:27;98551.16;;;8.98;100.00
74169;BME280;62523;53.336;83.690;2023-04-24T18:04:29;98557.53;;;8.94;100.00
74169;BME280;62523;53.336;83.690;2023-04-24T18:09:31;98557.06;;;8.87;100.00
74169;BME280;62523;53.336;83.690;2023-04-24T18:14:33;98575.81;;;8.81;100.00
74169;BME280;62523;53.336;83.690;2023-04-24T18:19:36;98580.22;;;8.80;100.00
74169;BME280;62523;53.336;83.690;2023-04-24T18:24:38;98592.91;;;8.74;100.00
74169;BME280;62523;53.336;83.690;2023-04-24T18:29:40;98608.34;;;8.64;100.00
74169;BME280;62523;53.336;83.690;2023-04-24T18:34:42;98635.16;;;8.55;100.00
74169;BME280;62523;53.336;83.690;2023-04-24T18:39:44;98635.09;;;8.40;100.00
74169;BME280;62523;53.336;83.690;2023-04-24T18:44:46;98667.19;;;8.30;100.00
74169;BME280;62523;53.336;83.690;2023-04-24T18:49:50;98670.00;;;8.11;100.00
74169;BME280;62523;53.336;83.690;2023-04-24T18:54:52;98681.84;;;8.02;100.00
74169;BME280;62523;53.336;83.690;2023-04-24T18:59:54;98699.13;;;7.90;100.00
74169;BME280;62523;53.336;83.690;2023-04-24T19:04:56;98710.63;;;7.72;100.00
74169;BME280;62523;53.336;83.690;2023-04-24T19:09:58;98723.91;;;7.53;100.00
74169;BME280;62523;53.336;83.690;2023-04-24T19:15:00;98722.50;;;7.46;100.00
74169;BME280;62523;53.336;83.690;2023-04-24T19:20:06;98742.56;;;7.47;100.00
74169;BME280;62523;53.336;83.690;2023-04-24T19:25:09;98753.59;;;7.36;100.00
74169;BME280;62523;53.336;83.690;2023-04-24T19:30:11;98753.66;;;7.18;100.00
74169;BME280;62523;53.336;83.690;2023-04-24T19:35:13;98774.81;;;6.79;100.00
74169;BME280;62523;53.336;83.690;2023-04-24T19:40:16;98785.78;;;6.51;100.00
74169;BME280;62523;53.336;83.690;2023-04-24T19:45:18;98791.97;;;6.31;100.00
74169;BME280;62523;53.336;83.690;2023-04-24T19:50:20;98784.63;;;6.20;100.00
74169;BME280;62523;53.336;83.690;2023-04-24T19:55:23;98799.91;;;6.10;100.00
74169;BME280;62523;53.336;83.690;2023-04-24T20:00:25;98802.72;;;6.06;100.00
74169;BME280;62523;53.336;83.690;2023-04-24T20:05:27;98811.00;;;5.97;100.00
74169;BME280;62523;53.336;83.690;2023-04-24T20:10:29;98826.69;;;5.97;100.00
74169;BME280;62523;53.336;83.690;2023-04-24T20:15:31;98827.47;;;5.99;100.00
74169;BME280;62523;53.336;83.690;2023-04-24T20:20:34;98856.41;;;5.94;100.00
74169;BME280;62523;53.336;83.690;2023-04-24T20:25:39;98851.22;;;5.92;100.00
74169;BME280;62523;53.336;83.690;2023-04-24T20:30:51;98866.63;;;5.80;100.00
74169;BME280;62523;53.336;83.690;2023-04-24T20:35:53;98874.94;;;5.69;100.00
74169;BME280;62523;53.336;83.690;2023-04-24T20:40:55;98884.31;;;5.52;100.00
74169;BME280;62523;53.336;83.690;2023-04-24T20:45:58;98917.44;;;5.31;100.00
74169;BME280;62523;53.336;83.690;2023-04-24T20:51:00;98921.19;;;5.24;100.00
74169;BME280;62523;53.336;83.690;2023-04-24T20:56:02;98926.75;;;5.17;100.00
74169;BME280;62523;53.336;83.690;2023-04-24T21:01:04;98940.66;;;5.17;100.00
74169;BME280;62523;53.336;83.690;2023-04-24T21:06:07;98966.53;;;5.01;100.00
74169;BME280;62523;53.336;83.690;2023-04-24T21:11:09;98996.06;;;4.33;100.00
74169;BME280;62523;53.336;83.690;2023-04-24T21:16:11;99002.19;;;3.81;100.00
74169;BME280;62523;53.336;83.690;2023-04-24T21:21:14;99026.19;;;3.64;100.00
74169;BME280;62523;53.336;83.690;2023-04-24T21:26:16;99026.13;;;3.39;100.00
74169;BME280;62523;53.336;83.690;2023-04-24T21:31:19;99028.25;;;3.26;100.00
74169;BME280;62523;53.336;83.690;2023-04-24T21:36:21;99068.31;;;3.22;100.00
74169;BME280;62523;53.336;83.690;2023-04-24T21:41:23;99081.56;;;2.85;100.00
74169;BME280;62523;53.336;83.690;2023-04-24T21:46:26;99100.25;;;2.35;100.00
74169;BME280;62523;53.336;83.690;2023-04-24T21:51:28;99133.59;;;1.83;100.00
74169;BME280;62523;53.336;83.690;2023-04-24T21:56:31;99144.59;;;1.57;100.00
74169;BME280;62523;53.336;83.690;2023-04-24T22:01:33;99158.44;;;1.56;100.00
74169;BME280;62523;53.336;83.690;2023-04-24T22:06:35;99168.44;;;1.36;100.00
74169;BME280;62523;53.336;83.690;2023-04-24T22:11:39;99171.06;;;1.34;100.00
74169;BME280;62523;53.336;83.690;2023-04-24T22:16:42;99186.78;;;1.27;100.00
74169;BME280;62523;53.336;83.690;2023-04-24T22:21:47;99194.69;;;1.20;100.00
74169;BME280;62523;53.336;83.690;2023-04-24T22:26:49;99203.25;;;1.24;100.00
74169;BME280;62523;53.336;83.690;2023-04-24T22:31:51;99196.25;;;1.29;100.00
74169;BME280;62523;53.336;83.690;2023-04-24T22:36:56;99220.69;;;1.17;100.00
74169;BME280;62523;53.336;83.690;2023-04-24T22:41:59;99241.28;;;1.27;100.00
74169;BME280;62523;53.336;83.690;2023-04-24T22:47:01;99247.38;;;1.26;99.46
74169;BME280;62523;53.336;83.690;2023-04-24T22:52:07;99283.81;;;1.18;99.59
74169;BME280;62523;53.336;83.690;2023-04-24T22:57:10;99283.19;;;1.05;100.00
74169;BME280;62523;53.336;83.690;2023-04-24T23:02:13;99297.16;;;0.99;100.00
74169;BME280;62523;53.336;83.690;2023-04-24T23:07:17;99306.81;;;0.91;100.00
74169;BME280;62523;53.336;83.690;2023-04-24T23:12:19;99337.16;;;0.85;93.50
74169;BME280;62523;53.336;83.690;2023-04-24T23:17:21;99369.41;;;0.67;69.37
74169;BME280;62523;53.336;83.690;2023-04-24T23:22:23;99357.63;;;0.47;63.36
74169;BME280;62523;53.336;83.690;2023-04-24T23:27:26;99362.16;;;0.33;60.16
74169;BME280;62523;53.336;83.690;2023-04-24T23:32:28;99409.59;;;0.38;58.04
74169;BME280;62523;53.336;83.690;2023-04-24T23:37:30;99417.50;;;0.29;58.59
74169;BME280;62523;53.336;83.690;2023-04-24T23:42:32;99438.28;;;0.24;60.06
74169;BME280;62523;53.336;83.690;2023-04-24T23:47:35;99449.47;;;0.26;60.25
74169;BME280;62523;53.336;83.690;2023-04-24T23:52:37;99462.44;;;0.25;61.10
74169;BME280;62523;53.336;83.690;2023-04-24T23:57:39;99482.41;;;0.15;63.69
